Terminal Aerodrome Forecast
Issued by NWS Spokane, WA

Home | Current Version | Previous Version | Text Only | Print | Product List | Glossary On
Versions: 1 2 3 4 5 6 7 8 9 10 11 12 13 14 15 16 17 18 19 20 21 22 23 24 25 26 27 28 29 30 31 32
000
FTUS46 KOTX 181303 AAA
TAFEAT
TAF AMD
KEAT 181303Z 1813/1912 09006KT 1 1/2SM BR OVC002
     FM181800 31007KT P6SM OVC007
     FM182000 29006KT P6SM BKN015 OVC100
     FM182100 30005KT P6SM SCT080 OVC120
     FM190400 31004KT P6SM -RA OVC015
     FM190900 06002KT 4SM BR OVC007
      TEMPO 1909/1912 4SM -RA OVC007=

USA.gov is the U.S. government's official web portal to all federal, state and local government web resources and services.